Back to Top

Language: 

My Weather Underground Personal Weather Station Historical Data with Graphs...

Delerius Weather Station Historical Data
Daily Summary for April 11, 2017 Units:  Both    English   Metric
« Previous Day
Next Day »
Daily Weekly Monthly Yearly Custom
  High: Low: Average:
Temperature: 57.7 °F /  14.3 °C 39.9 °F /  4.4 °C 48.7 °F /  9.3 °C
Dew Point: 43.5 °F /  6.4 °C 36.5 °F /  2.5 °C 40.6 °F /  4.8 °C
Humidity: 89 % 54 % 74 %
Wind Speed: 17.0 mph /  27.4 km/h - 9.4 mph /  15.1 km/h
Wind Gust: 28.0 mph /  45.1 km/h - -
Wind:- - West
Pressure: 30.33 in /  1027 hPa 30.12 in /  1019.9 hPa -
Precipitation: 0.00 in /  0 mm    
Historical Graphs
 
 
Tabular Data for April 11, 2017
Time Temperature Dew Point Pressure Wind Wind Speed Wind Gust Humidity Rainfall Rate (Hourly) solar Conditions
00:04 44.8 °F /  7.1 °C 38.3 °F /  3.5 °C 30.32 in /  1026.6 hPa WNW 9.0 mph /  14.5 km/h 15.0 mph /  24.1 km/h 78 % 0.00 in /  0 mm 0 W/m2
00:10 44.8 °F /  7.1 °C 38.3 °F /  3.5 °C 30.32 in /  1026.6 hPa WNW 7.0 mph /  11.3 km/h 13.0 mph /  20.9 km/h 78 % 0.00 in /  0 mm 0 W/m2
00:15 44.4 °F /  6.9 °C 38.3 °F /  3.5 °C 30.32 in /  1026.6 hPa WNW 7.0 mph /  11.3 km/h 12.0 mph /  19.3 km/h 79 % 0.00 in /  0 mm 0 W/m2
00:20 44.2 °F /  6.8 °C 38.1 °F /  3.4 °C 30.32 in /  1026.6 hPa WNW 6.0 mph /  9.7 km/h 12.0 mph /  19.3 km/h 79 % 0.00 in /  0 mm 0 W/m2
00:25 44.2 °F /  6.8 °C 38.1 °F /  3.4 °C 30.33 in /  1027 hPa WNW 6.0 mph /  9.7 km/h 11.0 mph /  17.7 km/h 79 % 0.00 in /  0 mm 0 W/m2
00:30 44.1 °F /  6.7 °C 38.3 °F /  3.5 °C 30.33 in /  1027 hPa WNW 6.0 mph /  9.7 km/h 11.0 mph /  17.7 km/h 80 % 0.00 in /  0 mm 0 W/m2
00:35 43.9 °F /  6.6 °C 38.1 °F /  3.4 °C 30.33 in /  1027 hPa WNW 7.0 mph /  11.3 km/h 11.0 mph /  17.7 km/h 80 % 0.00 in /  0 mm 0 W/m2
00:40 43.9 °F /  6.6 °C 38.1 °F /  3.4 °C 30.33 in /  1027 hPa WNW 7.0 mph /  11.3 km/h 11.0 mph /  17.7 km/h 80 % 0.00 in /  0 mm 0 W/m2
00:45 43.9 °F /  6.6 °C 38.4 °F /  3.6 °C 30.32 in /  1026.6 hPa WNW 6.0 mph /  9.7 km/h 10.0 mph /  16.1 km/h 81 % 0.00 in /  0 mm 0 W/m2
00:50 43.7 °F /  6.5 °C 38.3 °F /  3.5 °C 30.32 in /  1026.6 hPa WNW 6.0 mph /  9.7 km/h 10.0 mph /  16.1 km/h 81 % 0.00 in /  0 mm 0 W/m2
00:55 43.5 °F /  6.4 °C 38.4 °F /  3.6 °C 30.32 in /  1026.6 hPa WNW 6.0 mph /  9.7 km/h 10.0 mph /  16.1 km/h 82 % 0.00 in /  0 mm 0 W/m2
01:00 43.5 °F /  6.4 °C 38.4 °F /  3.6 °C 30.32 in /  1026.6 hPa WNW 6.0 mph /  9.7 km/h 12.0 mph /  19.3 km/h 82 % 0.00 in /  0 mm 0 W/m2
01:05 43.5 °F /  6.4 °C 38.4 °F /  3.6 °C 30.32 in /  1026.6 hPa WNW 6.0 mph /  9.7 km/h 12.0 mph /  19.3 km/h 82 % 0.00 in /  0 mm 0 W/m2
01:10 43.5 °F /  6.4 °C 38.7 °F /  3.7 °C 30.32 in /  1026.6 hPa WNW 6.0 mph /  9.7 km/h 11.0 mph /  17.7 km/h 83 % 0.00 in /  0 mm 0 W/m2
01:15 43.3 °F /  6.3 °C 38.5 °F /  3.6 °C 30.32 in /  1026.6 hPa WNW 5.0 mph /  8 km/h 11.0 mph /  17.7 km/h 83 % 0.00 in /  0 mm 0 W/m2
01:20 43.3 °F /  6.3 °C 38.5 °F /  3.6 °C 30.33 in /  1027 hPa WNW 5.0 mph /  8 km/h 9.0 mph /  14.5 km/h 83 % 0.00 in /  0 mm 0 W/m2
01:25 43.3 °F /  6.3 °C 38.5 °F /  3.6 °C 30.32 in /  1026.6 hPa WNW 7.0 mph /  11.3 km/h 14.0 mph /  22.5 km/h 83 % 0.00 in /  0 mm 0 W/m2
01:30 43.3 °F /  6.3 °C 38.5 °F /  3.6 °C 30.32 in /  1026.6 hPa WNW 8.0 mph /  12.9 km/h 14.0 mph /  22.5 km/h 83 % 0.00 in /  0 mm 0 W/m2
01:35 43.3 °F /  6.3 °C 38.5 °F /  3.6 °C 30.32 in /  1026.6 hPa WNW 7.0 mph /  11.3 km/h 12.0 mph /  19.3 km/h 83 % 0.00 in /  0 mm 0 W/m2
01:40 43.3 °F /  6.3 °C 38.5 °F /  3.6 °C 30.32 in /  1026.6 hPa WNW 7.0 mph /  11.3 km/h 11.0 mph /  17.7 km/h 83 % 0.00 in /  0 mm 0 W/m2
01:45 43.3 °F /  6.3 °C 38.8 °F /  3.8 °C 30.32 in /  1026.6 hPa WNW 8.0 mph /  12.9 km/h 15.0 mph /  24.1 km/h 84 % 0.00 in /  0 mm 0 W/m2
01:50 43.5 °F /  6.4 °C 38.7 °F /  3.7 °C 30.33 in /  1027 hPa WNW 9.0 mph /  14.5 km/h 15.0 mph /  24.1 km/h 83 % 0.00 in /  0 mm 0 W/m2
01:55 43.7 °F /  6.5 °C 38.9 °F /  3.8 °C 30.33 in /  1027 hPa WNW 8.0 mph /  12.9 km/h 14.0 mph /  22.5 km/h 83 % 0.00 in /  0 mm 0 W/m2
02:00 43.7 °F /  6.5 °C 38.9 °F /  3.8 °C 30.33 in /  1027 hPa WNW 6.0 mph /  9.7 km/h 11.0 mph /  17.7 km/h 83 % 0.00 in /  0 mm 0 W/m2
02:05 43.7 °F /  6.5 °C 38.9 °F /  3.8 °C 30.32 in /  1026.6 hPa WNW 6.0 mph /  9.7 km/h 9.0 mph /  14.5 km/h 83 % 0.00 in /  0 mm 0 W/m2
02:10 43.7 °F /  6.5 °C 38.9 °F /  3.8 °C 30.32 in /  1026.6 hPa WNW 6.0 mph /  9.7 km/h 11.0 mph /  17.7 km/h 83 % 0.00 in /  0 mm 0 W/m2
02:15 43.7 °F /  6.5 °C 38.9 °F /  3.8 °C 30.32 in /  1026.6 hPa WNW 7.0 mph /  11.3 km/h 11.0 mph /  17.7 km/h 83 % 0.00 in /  0 mm 0 W/m2
02:20 43.5 °F /  6.4 °C 38.7 °F /  3.7 °C 30.32 in /  1026.6 hPa WNW 6.0 mph /  9.7 km/h 11.0 mph /  17.7 km/h 83 % 0.00 in /  0 mm 0 W/m2
02:25 43.5 °F /  6.4 °C 38.7 °F /  3.7 °C 30.32 in /  1026.6 hPa WNW 6.0 mph /  9.7 km/h 11.0 mph /  17.7 km/h 83 % 0.00 in /  0 mm 0 W/m2
02:30 43.5 °F /  6.4 °C 38.7 °F /  3.7 °C 30.32 in /  1026.6 hPa WNW 4.0 mph /  6.4 km/h 11.0 mph /  17.7 km/h 83 % 0.00 in /  0 mm 0 W/m2
02:35 43.3 °F /  6.3 °C 38.5 °F /  3.6 °C 30.32 in /  1026.6 hPa NW 4.0 mph /  6.4 km/h 9.0 mph /  14.5 km/h 83 % 0.00 in /  0 mm 0 W/m2
02:40 43.3 °F /  6.3 °C 38.5 °F /  3.6 °C 30.32 in /  1026.6 hPa NW 5.0 mph /  8 km/h 9.0 mph /  14.5 km/h 83 % 0.00 in /  0 mm 0 W/m2
02:45 43.2 °F /  6.2 °C 38.3 °F /  3.5 °C 30.32 in /  1026.6 hPa WNW 6.0 mph /  9.7 km/h 9.0 mph /  14.5 km/h 83 % 0.00 in /  0 mm 0 W/m2
02:50 43.0 °F /  6.1 °C 38.2 °F /  3.4 °C 30.32 in /  1026.6 hPa WNW 7.0 mph /  11.3 km/h 13.0 mph /  20.9 km/h 83 % 0.00 in /  0 mm 0 W/m2
02:55 43.0 °F /  6.1 °C 38.2 °F /  3.4 °C 30.32 in /  1026.6 hPa WNW 9.0 mph /  14.5 km/h 14.0 mph /  22.5 km/h 83 % 0.00 in /  0 mm 0 W/m2
03:00 43.0 °F /  6.1 °C 38.2 °F /  3.4 °C 30.32 in /  1026.6 hPa WNW 9.0 mph /  14.5 km/h 14.0 mph /  22.5 km/h 83 % 0.00 in /  0 mm 0 W/m2
03:05 43.0 °F /  6.1 °C 38.2 °F /  3.4 °C 30.32 in /  1026.6 hPa WNW 9.0 mph /  14.5 km/h 13.0 mph /  20.9 km/h 83 % 0.00 in /  0 mm 0 W/m2
03:10 42.8 °F /  6 °C 38.0 °F /  3.3 °C 30.32 in /  1026.6 hPa WNW 7.0 mph /  11.3 km/h 13.0 mph /  20.9 km/h 83 % 0.00 in /  0 mm 0 W/m2
03:16 42.6 °F /  5.9 °C 37.8 °F /  3.2 °C 30.32 in /  1026.6 hPa West 6.0 mph /  9.7 km/h 11.0 mph /  17.7 km/h 83 % 0.00 in /  0 mm 0 W/m2
03:21 42.6 °F /  5.9 °C 37.8 °F /  3.2 °C 30.32 in /  1026.6 hPa West 4.0 mph /  6.4 km/h 8.0 mph /  12.9 km/h 83 % 0.00 in /  0 mm 0 W/m2
03:26 42.4 °F /  5.8 °C 37.6 °F /  3.1 °C 30.31 in /  1026.3 hPa West 4.0 mph /  6.4 km/h 7.0 mph /  11.3 km/h 83 % 0.00 in /  0 mm 0 W/m2
03:31 42.3 °F /  5.7 °C 37.8 °F /  3.2 °C 30.32 in /  1026.6 hPa West 3.0 mph /  4.8 km/h 7.0 mph /  11.3 km/h 84 % 0.00 in /  0 mm 0 W/m2
03:36 42.1 °F /  5.6 °C 37.6 °F /  3.1 °C 30.32 in /  1026.6 hPa West 3.0 mph /  4.8 km/h 6.0 mph /  9.7 km/h 84 % 0.00 in /  0 mm 0 W/m2
03:41 42.1 °F /  5.6 °C 37.6 °F /  3.1 °C 30.32 in /  1026.6 hPa West 3.0 mph /  4.8 km/h 9.0 mph /  14.5 km/h 84 % 0.00 in /  0 mm 0 W/m2
03:46 42.1 °F /  5.6 °C 37.6 °F /  3.1 °C 30.32 in /  1026.6 hPa West 4.0 mph /  6.4 km/h 10.0 mph /  16.1 km/h 84 % 0.00 in /  0 mm 0 W/m2
03:51 42.1 °F /  5.6 °C 37.6 °F /  3.1 °C 30.32 in /  1026.6 hPa West 4.0 mph /  6.4 km/h 10.0 mph /  16.1 km/h 84 % 0.00 in /  0 mm 0 W/m2
03:56 41.9 °F /  5.5 °C 37.4 °F /  3 °C 30.32 in /  1026.6 hPa West 3.0 mph /  4.8 km/h 7.0 mph /  11.3 km/h 84 % 0.00 in /  0 mm 0 W/m2
04:01 41.7 °F /  5.4 °C 37.2 °F /  2.9 °C 30.32 in /  1026.6 hPa West 3.0 mph /  4.8 km/h 7.0 mph /  11.3 km/h 84 % 0.00 in /  0 mm 0 W/m2
04:06 41.7 °F /  5.4 °C 37.2 °F /  2.9 °C 30.32 in /  1026.6 hPa West 3.0 mph /  4.8 km/h 7.0 mph /  11.3 km/h 84 % 0.00 in /  0 mm 0 W/m2
04:11 41.7 °F /  5.4 °C 37.5 °F /  3.1 °C 30.32 in /  1026.6 hPa WNW 4.0 mph /  6.4 km/h 8.0 mph /  12.9 km/h 85 % 0.00 in /  0 mm 0 W/m2
04:16 41.7 °F /  5.4 °C 37.5 °F /  3.1 °C 30.32 in /  1026.6 hPa WNW 5.0 mph /  8 km/h 11.0 mph /  17.7 km/h 85 % 0.00 in /  0 mm 0 W/m2
04:21 41.7 °F /  5.4 °C 37.5 °F /  3.1 °C 30.32 in /  1026.6 hPa WNW 6.0 mph /  9.7 km/h 11.0 mph /  17.7 km/h 85 % 0.00 in /  0 mm 0 W/m2
04:26 41.7 °F /  5.4 °C 37.5 °F /  3.1 °C 30.32 in /  1026.6 hPa WNW 5.0 mph /  8 km/h 10.0 mph /  16.1 km/h 85 % 0.00 in /  0 mm 0 W/m2
04:31 41.7 °F /  5.4 °C 37.5 °F /  3.1 °C 30.32 in /  1026.6 hPa WNW 5.0 mph /  8 km/h 10.0 mph /  16.1 km/h 85 % 0.00 in /  0 mm 0 W/m2
04:36 41.7 °F /  5.4 °C 37.5 °F /  3.1 °C 30.32 in /  1026.6 hPa WNW 7.0 mph /  11.3 km/h 12.0 mph /  19.3 km/h 85 % 0.00 in /  0 mm 0 W/m2
04:41 41.9 °F /  5.5 °C 37.7 °F /  3.2 °C 30.32 in /  1026.6 hPa WNW 7.0 mph /  11.3 km/h 12.0 mph /  19.3 km/h 85 % 0.00 in /  0 mm 0 W/m2
04:46 41.7 °F /  5.4 °C 37.5 °F /  3.1 °C 30.31 in /  1026.3 hPa WNW 7.0 mph /  11.3 km/h 10.0 mph /  16.1 km/h 85 % 0.00 in /  0 mm 0 W/m2
04:51 41.7 °F /  5.4 °C 37.5 °F /  3.1 °C 30.32 in /  1026.6 hPa WNW 7.0 mph /  11.3 km/h 12.0 mph /  19.3 km/h 85 % 0.00 in /  0 mm 0 W/m2
04:56 41.7 °F /  5.4 °C 37.5 °F /  3.1 °C 30.32 in /  1026.6 hPa WNW 8.0 mph /  12.9 km/h 12.0 mph /  19.3 km/h 85 % 0.00 in /  0 mm 0 W/m2
05:01 41.7 °F /  5.4 °C 37.5 °F /  3.1 °C 30.32 in /  1026.6 hPa WNW 7.0 mph /  11.3 km/h 12.0 mph /  19.3 km/h 85 % 0.00 in /  0 mm 0 W/m2
05:06 41.5 °F /  5.3 °C 37.4 °F /  3 °C 30.32 in /  1026.6 hPa WNW 6.0 mph /  9.7 km/h 10.0 mph /  16.1 km/h 85 % 0.00 in /  0 mm 0 W/m2
05:11 41.5 °F /  5.3 °C 37.4 °F /  3 °C 30.32 in /  1026.6 hPa WNW 6.0 mph /  9.7 km/h 9.0 mph /  14.5 km/h 85 % 0.00 in /  0 mm 0 W/m2
05:16 41.5 °F /  5.3 °C 37.4 °F /  3 °C 30.31 in /  1026.3 hPa WNW 6.0 mph /  9.7 km/h 9.0 mph /  14.5 km/h 85 % 0.00 in /  0 mm 0 W/m2
05:21 41.4 °F /  5.2 °C 37.2 °F /  2.9 °C 30.31 in /  1026.3 hPa WNW 7.0 mph /  11.3 km/h 13.0 mph /  20.9 km/h 85 % 0.00 in /  0 mm 0 W/m2
05:26 41.4 °F /  5.2 °C 37.5 °F /  3.1 °C 30.32 in /  1026.6 hPa WNW 9.0 mph /  14.5 km/h 13.0 mph /  20.9 km/h 86 % 0.00 in /  0 mm 0 W/m2
05:31 41.4 °F /  5.2 °C 37.5 °F /  3.1 °C 30.32 in /  1026.6 hPa WNW 8.0 mph /  12.9 km/h 12.0 mph /  19.3 km/h 86 % 0.00 in /  0 mm 0 W/m2
05:36 41.4 °F /  5.2 °C 37.5 °F /  3.1 °C 30.32 in /  1026.6 hPa WNW 6.0 mph /  9.7 km/h 11.0 mph /  17.7 km/h 86 % 0.00 in /  0 mm 0 W/m2
05:41 41.4 °F /  5.2 °C 37.5 °F /  3.1 °C 30.32 in /  1026.6 hPa WNW 5.0 mph /  8 km/h 8.0 mph /  12.9 km/h 86 % 0.00 in /  0 mm 0 W/m2
05:46 41.2 °F /  5.1 °C 37.3 °F /  2.9 °C 30.32 in /  1026.6 hPa WNW 3.0 mph /  4.8 km/h 6.0 mph /  9.7 km/h 86 % 0.00 in /  0 mm 0 W/m2
05:51 41.2 °F /  5.1 °C 37.3 °F /  2.9 °C 30.32 in /  1026.6 hPa WNW 1.0 mph /  1.6 km/h 4.0 mph /  6.4 km/h 86 % 0.00 in /  0 mm 0 W/m2
05:56 41.2 °F /  5.1 °C 37.3 °F /  2.9 °C 30.32 in /  1026.6 hPa Calm     86 % 0.00 in /  0 mm 0 W/m2
06:01 41.2 °F /  5.1 °C 37.3 °F /  2.9 °C 30.32 in /  1026.6 hPa Calm     86 % 0.00 in /  0 mm 0 W/m2
06:06 40.8 °F /  4.9 °C 37.0 °F /  2.8 °C 30.32 in /  1026.6 hPa Calm     86 % 0.00 in /  0 mm 0 W/m2
06:11 40.6 °F /  4.8 °C 36.8 °F /  2.7 °C 30.32 in /  1026.6 hPa Calm     86 % 0.00 in /  0 mm 7 W/m2
06:16 40.5 °F /  4.7 °C 36.6 °F /  2.6 °C 30.32 in /  1026.6 hPa Calm     86 % 0.00 in /  0 mm 9 W/m2
06:21 40.3 °F /  4.6 °C 36.7 °F /  2.6 °C 30.32 in /  1026.6 hPa Calm     87 % 0.00 in /  0 mm 11 W/m2
06:26 40.1 °F /  4.5 °C 36.5 °F /  2.5 °C 30.32 in /  1026.6 hPa WNW 1.0 mph /  1.6 km/h 4.0 mph /  6.4 km/h 87 % 0.00 in /  0 mm 16 W/m2
06:31 39.9 °F /  4.4 °C 36.7 °F /  2.6 °C 30.32 in /  1026.6 hPa WNW 2.0 mph /  3.2 km/h 5.0 mph /  8 km/h 88 % 0.00 in /  0 mm 25 W/m2
06:36 40.3 °F /  4.6 °C 37.3 °F /  2.9 °C 30.32 in /  1026.6 hPa WNW 3.0 mph /  4.8 km/h 7.0 mph /  11.3 km/h 89 % 0.00 in /  0 mm 32 W/m2
06:41 40.5 °F /  4.7 °C 37.5 °F /  3.1 °C 30.32 in /  1026.6 hPa WNW 2.0 mph /  3.2 km/h 7.0 mph /  11.3 km/h 89 % 0.00 in /  0 mm 33 W/m2
06:47 40.6 °F /  4.8 °C 37.7 °F /  3.2 °C 30.33 in /  1027 hPa Calm   5.0 mph /  8 km/h 89 % 0.00 in /  0 mm 40 W/m2
06:52 40.8 °F /  4.9 °C 37.8 °F /  3.2 °C 30.33 in /  1027 hPa Calm     89 % 0.00 in /  0 mm 53 W/m2
06:57 41.2 °F /  5.1 °C 38.2 °F /  3.4 °C 30.32 in /  1026.6 hPa Calm   1.0 mph /  1.6 km/h 89 % 0.00 in /  0 mm 44 W/m2
07:02 41.4 °F /  5.2 °C 38.4 °F /  3.6 °C 30.32 in /  1026.6 hPa Calm   1.0 mph /  1.6 km/h 89 % 0.00 in /  0 mm 51 W/m2
07:07 41.5 °F /  5.3 °C 38.5 °F /  3.6 °C 30.32 in /  1026.6 hPa Calm     89 % 0.00 in /  0 mm 74 W/m2
07:12 41.7 °F /  5.4 °C 38.7 °F /  3.7 °C 30.32 in /  1026.6 hPa Calm     89 % 0.00 in /  0 mm 69 W/m2
07:17 42.1 °F /  5.6 °C 39.1 °F /  3.9 °C 30.31 in /  1026.3 hPa Calm   2.0 mph /  3.2 km/h 89 % 0.00 in /  0 mm 67 W/m2
07:22 42.4 °F /  5.8 °C 39.1 °F /  3.9 °C 30.31 in /  1026.3 hPa Calm   4.0 mph /  6.4 km/h 88 % 0.00 in /  0 mm 70 W/m2
07:27 42.8 °F /  6 °C 39.5 °F /  4.2 °C 30.31 in /  1026.3 hPa West 1.0 mph /  1.6 km/h 4.0 mph /  6.4 km/h 88 % 0.00 in /  0 mm 76 W/m2
07:32 43.2 °F /  6.2 °C 39.6 °F /  4.2 °C 30.32 in /  1026.6 hPa West 1.0 mph /  1.6 km/h 5.0 mph /  8 km/h 87 % 0.00 in /  0 mm 88 W/m2
07:37 43.3 °F /  6.3 °C 39.7 °F /  4.3 °C 30.31 in /  1026.3 hPa WSW 1.0 mph /  1.6 km/h 5.0 mph /  8 km/h 87 % 0.00 in /  0 mm 97 W/m2
07:42 43.5 °F /  6.4 °C 39.6 °F /  4.2 °C 30.31 in /  1026.3 hPa West 1.0 mph /  1.6 km/h 6.0 mph /  9.7 km/h 86 % 0.00 in /  0 mm 111 W/m2
07:47 43.9 °F /  6.6 °C 40.0 °F /  4.4 °C 30.31 in /  1026.3 hPa West 2.0 mph /  3.2 km/h 6.0 mph /  9.7 km/h 86 % 0.00 in /  0 mm 113 W/m2
07:52 44.4 °F /  6.9 °C 40.5 °F /  4.7 °C 30.31 in /  1026.3 hPa West 5.0 mph /  8 km/h 12.0 mph /  19.3 km/h 86 % 0.00 in /  0 mm 113 W/m2
07:57 45.0 °F /  7.2 °C 40.7 °F /  4.8 °C 30.31 in /  1026.3 hPa West 7.0 mph /  11.3 km/h 12.0 mph /  19.3 km/h 85 % 0.00 in /  0 mm 121 W/m2
08:02 45.1 °F /  7.3 °C 40.6 °F /  4.8 °C 30.31 in /  1026.3 hPa West 7.0 mph /  11.3 km/h 13.0 mph /  20.9 km/h 84 % 0.00 in /  0 mm 141 W/m2
08:07 45.5 °F /  7.5 °C 40.6 °F /  4.8 °C 30.31 in /  1026.3 hPa West 7.0 mph /  11.3 km/h 13.0 mph /  20.9 km/h 83 % 0.00 in /  0 mm 158 W/m2
08:12 45.9 °F /  7.7 °C 41.0 °F /  5 °C 30.32 in /  1026.6 hPa West 6.0 mph /  9.7 km/h 12.0 mph /  19.3 km/h 83 % 0.00 in /  0 mm 250 W/m2
08:17 46.2 °F /  7.9 °C 41.3 °F /  5.2 °C 30.31 in /  1026.3 hPa West 3.0 mph /  4.8 km/h 9.0 mph /  14.5 km/h 83 % 0.00 in /  0 mm 169 W/m2
08:22 46.6 °F /  8.1 °C 41.4 °F /  5.2 °C 30.31 in /  1026.3 hPa West 3.0 mph /  4.8 km/h 10.0 mph /  16.1 km/h 82 % 0.00 in /  0 mm 181 W/m2
08:27 46.9 °F /  8.3 °C 41.7 °F /  5.4 °C 30.31 in /  1026.3 hPa West 6.0 mph /  9.7 km/h 13.0 mph /  20.9 km/h 82 % 0.00 in /  0 mm 239 W/m2
08:32 47.3 °F /  8.5 °C 42.1 °F /  5.6 °C 30.31 in /  1026.3 hPa West 7.0 mph /  11.3 km/h 13.0 mph /  20.9 km/h 82 % 0.00 in /  0 mm 179 W/m2
08:37 47.7 °F /  8.7 °C 42.1 °F /  5.6 °C 30.31 in /  1026.3 hPa West 8.0 mph /  12.9 km/h 18.0 mph /  29 km/h 81 % 0.00 in /  0 mm 153 W/m2
08:42 47.7 °F /  8.7 °C 41.8 °F /  5.4 °C 30.31 in /  1026.3 hPa WNW 10.0 mph /  16.1 km/h 19.0 mph /  30.6 km/h 80 % 0.00 in /  0 mm 144 W/m2
08:47 47.7 °F /  8.7 °C 41.5 °F /  5.3 °C 30.32 in /  1026.6 hPa WNW 11.0 mph /  17.7 km/h 19.0 mph /  30.6 km/h 79 % 0.00 in /  0 mm 128 W/m2
08:52 47.7 °F /  8.7 °C 41.1 °F /  5.1 °C 30.32 in /  1026.6 hPa WNW 11.0 mph /  17.7 km/h 21.0 mph /  33.8 km/h 78 % 0.00 in /  0 mm 232 W/m2
08:57 47.8 °F /  8.8 °C 41.3 °F /  5.2 °C 30.32 in /  1026.6 hPa WNW 11.0 mph /  17.7 km/h 21.0 mph /  33.8 km/h 78 % 0.00 in /  0 mm 186 W/m2
09:02 48.0 °F /  8.9 °C 41.5 °F /  5.3 °C 30.32 in /  1026.6 hPa WNW 11.0 mph /  17.7 km/h 19.0 mph /  30.6 km/h 78 % 0.00 in /  0 mm 258 W/m2
09:07 48.2 °F /  9 °C 41.7 °F /  5.4 °C 30.32 in /  1026.6 hPa West 10.0 mph /  16.1 km/h 19.0 mph /  30.6 km/h 78 % 0.00 in /  0 mm 279 W/m2
09:12 48.4 °F /  9.1 °C 41.5 °F /  5.3 °C 30.32 in /  1026.6 hPa West 11.0 mph /  17.7 km/h 21.0 mph /  33.8 km/h 77 % 0.00 in /  0 mm 478 W/m2
09:17 48.7 °F /  9.3 °C 41.8 °F /  5.4 °C 30.31 in /  1026.3 hPa West 12.0 mph /  19.3 km/h 21.0 mph /  33.8 km/h 77 % 0.00 in /  0 mm 299 W/m2
09:22 48.9 °F /  9.4 °C 41.7 °F /  5.4 °C 30.31 in /  1026.3 hPa West 12.0 mph /  19.3 km/h 20.0 mph /  32.2 km/h 76 % 0.00 in /  0 mm 411 W/m2
09:27 49.3 °F /  9.6 °C 41.7 °F /  5.4 °C 30.32 in /  1026.6 hPa West 12.0 mph /  19.3 km/h 21.0 mph /  33.8 km/h 75 % 0.00 in /  0 mm 257 W/m2
09:32 49.5 °F /  9.7 °C 41.5 °F /  5.3 °C 30.31 in /  1026.3 hPa West 13.0 mph /  20.9 km/h 21.0 mph /  33.8 km/h 74 % 0.00 in /  0 mm 429 W/m2
09:37 49.5 °F /  9.7 °C 41.5 °F /  5.3 °C 30.31 in /  1026.3 hPa West 13.0 mph /  20.9 km/h 21.0 mph /  33.8 km/h 74 % 0.00 in /  0 mm 362 W/m2
09:42 49.6 °F /  9.8 °C 41.7 °F /  5.4 °C 30.31 in /  1026.3 hPa West 11.0 mph /  17.7 km/h 20.0 mph /  32.2 km/h 74 % 0.00 in /  0 mm 343 W/m2
09:47 50.2 °F /  10.1 °C 42.2 °F /  5.7 °C 30.32 in /  1026.6 hPa West 10.0 mph /  16.1 km/h 21.0 mph /  33.8 km/h 74 % 0.00 in /  0 mm 647 W/m2
09:53 50.7 °F /  10.4 °C 42.4 °F /  5.8 °C 30.31 in /  1026.3 hPa West 10.0 mph /  16.1 km/h 21.0 mph /  33.8 km/h 73 % 0.00 in /  0 mm 211 W/m2
09:58 50.5 °F /  10.3 °C 41.5 °F /  5.3 °C 30.31 in /  1026.3 hPa West 11.0 mph /  17.7 km/h 18.0 mph /  29 km/h 71 % 0.00 in /  0 mm 311 W/m2
10:03 50.5 °F /  10.3 °C 41.8 °F /  5.4 °C 30.31 in /  1026.3 hPa West 12.0 mph /  19.3 km/h 20.0 mph /  32.2 km/h 72 % 0.00 in /  0 mm 257 W/m2
10:08 50.5 °F /  10.3 °C 41.8 °F /  5.4 °C 30.31 in /  1026.3 hPa West 14.0 mph /  22.5 km/h 24.0 mph /  38.6 km/h 72 % 0.00 in /  0 mm 452 W/m2
10:13 50.5 °F /  10.3 °C 41.8 °F /  5.4 °C 30.31 in /  1026.3 hPa West 14.0 mph /  22.5 km/h 24.0 mph /  38.6 km/h 72 % 0.00 in /  0 mm 327 W/m2
10:18 50.7 °F /  10.4 °C 42.0 °F /  5.6 °C 30.31 in /  1026.3 hPa West 13.0 mph /  20.9 km/h 20.0 mph /  32.2 km/h 72 % 0.00 in /  0 mm 281 W/m2
10:23 50.9 °F /  10.5 °C 41.8 °F /  5.4 °C 30.31 in /  1026.3 hPa West 12.0 mph /  19.3 km/h 21.0 mph /  33.8 km/h 71 % 0.00 in /  0 mm 406 W/m2
10:28 51.1 °F /  10.6 °C 42.0 °F /  5.6 °C 30.31 in /  1026.3 hPa West 12.0 mph /  19.3 km/h 23.0 mph /  37 km/h 71 % 0.00 in /  0 mm 555 W/m2
10:33 51.1 °F /  10.6 °C 41.6 °F /  5.3 °C 30.32 in /  1026.6 hPa WNW 12.0 mph /  19.3 km/h 23.0 mph /  37 km/h 70 % 0.00 in /  0 mm 285 W/m2
10:38 51.3 °F /  10.7 °C 42.2 °F /  5.7 °C 30.31 in /  1026.3 hPa WNW 9.0 mph /  14.5 km/h 18.0 mph /  29 km/h 71 % 0.00 in /  0 mm 239 W/m2
10:43 51.3 °F /  10.7 °C 42.2 °F /  5.7 °C 30.32 in /  1026.6 hPa West 9.0 mph /  14.5 km/h 20.0 mph /  32.2 km/h 71 % 0.00 in /  0 mm 229 W/m2
10:48 51.3 °F /  10.7 °C 41.8 °F /  5.4 °C 30.32 in /  1026.6 hPa West 11.0 mph /  17.7 km/h 20.0 mph /  32.2 km/h 70 % 0.00 in /  0 mm 176 W/m2
10:53 51.1 °F /  10.6 °C 42.0 °F /  5.6 °C 30.31 in /  1026.3 hPa WNW 12.0 mph /  19.3 km/h 19.0 mph /  30.6 km/h 71 % 0.00 in /  0 mm 239 W/m2
10:58 51.1 °F /  10.6 °C 42.0 °F /  5.6 °C 30.31 in /  1026.3 hPa WNW 10.0 mph /  16.1 km/h 19.0 mph /  30.6 km/h 71 % 0.00 in /  0 mm 383 W/m2
11:03 51.6 °F /  10.9 °C 42.5 °F /  5.8 °C 30.31 in /  1026.3 hPa WNW 10.0 mph /  16.1 km/h 21.0 mph /  33.8 km/h 71 % 0.00 in /  0 mm 473 W/m2
11:08 52.5 °F /  11.4 °C 43.0 °F /  6.1 °C 30.31 in /  1026.3 hPa WNW 12.0 mph /  19.3 km/h 24.0 mph /  38.6 km/h 70 % 0.00 in /  0 mm 422 W/m2
11:13 52.9 °F /  11.6 °C 42.6 °F /  5.9 °C 30.31 in /  1026.3 hPa WNW 13.0 mph /  20.9 km/h 24.0 mph /  38.6 km/h 68 % 0.00 in /  0 mm 336 W/m2
11:18 52.5 °F /  11.4 °C 42.3 °F /  5.7 °C 30.30 in /  1026 hPa West 13.0 mph /  20.9 km/h 22.0 mph /  35.4 km/h 68 % 0.00 in /  0 mm 257 W/m2
11:23 52.7 °F /  11.5 °C 42.8 °F /  6 °C 30.30 in /  1026 hPa West 11.0 mph /  17.7 km/h 22.0 mph /  35.4 km/h 69 % 0.00 in /  0 mm 533 W/m2
11:28 52.9 °F /  11.6 °C 43.0 °F /  6.1 °C 30.30 in /  1026 hPa West 10.0 mph /  16.1 km/h 19.0 mph /  30.6 km/h 69 % 0.00 in /  0 mm 531 W/m2
11:33 53.1 °F /  11.7 °C 42.4 °F /  5.8 °C 30.30 in /  1026 hPa West 12.0 mph /  19.3 km/h 21.0 mph /  33.8 km/h 67 % 0.00 in /  0 mm 461 W/m2
11:38 53.4 °F /  11.9 °C 42.7 °F /  5.9 °C 30.30 in /  1026 hPa West 13.0 mph /  20.9 km/h 24.0 mph /  38.6 km/h 67 % 0.00 in /  0 mm 330 W/m2
11:43 53.4 °F /  11.9 °C 42.7 °F /  5.9 °C 30.30 in /  1026 hPa WNW 14.0 mph /  22.5 km/h 24.0 mph /  38.6 km/h 67 % 0.00 in /  0 mm 322 W/m2
11:48 53.4 °F /  11.9 °C 42.7 °F /  5.9 °C 30.30 in /  1026 hPa WNW 14.0 mph /  22.5 km/h 23.0 mph /  37 km/h 67 % 0.00 in /  0 mm 225 W/m2
11:53 53.2 °F /  11.8 °C 42.9 °F /  6.1 °C 30.30 in /  1026 hPa WNW 12.0 mph /  19.3 km/h 22.0 mph /  35.4 km/h 68 % 0.00 in /  0 mm 323 W/m2
12:03 53.1 °F /  11.7 °C 42.4 °F /  5.8 °C 30.29 in /  1025.6 hPa WNW 13.0 mph /  20.9 km/h 24.0 mph /  38.6 km/h 67 % 0.00 in /  0 mm 341 W/m2
12:08 53.1 °F /  11.7 °C 42.4 °F /  5.8 °C 30.29 in /  1025.6 hPa West 14.0 mph /  22.5 km/h 24.0 mph /  38.6 km/h 67 % 0.00 in /  0 mm 383 W/m2
12:13 53.1 °F /  11.7 °C 42.4 °F /  5.8 °C 30.29 in /  1025.6 hPa West 15.0 mph /  24.1 km/h 26.0 mph /  41.8 km/h 67 % 0.00 in /  0 mm 250 W/m2
12:18 52.5 °F /  11.4 °C 41.9 °F /  5.5 °C 30.29 in /  1025.6 hPa West 16.0 mph /  25.7 km/h 26.0 mph /  41.8 km/h 67 % 0.00 in /  0 mm 251 W/m2
12:23 52.3 °F /  11.3 °C 42.1 °F /  5.6 °C 30.28 in /  1025.3 hPa West 14.0 mph /  22.5 km/h 26.0 mph /  41.8 km/h 68 % 0.00 in /  0 mm 218 W/m2
12:28 52.2 °F /  11.2 °C 42.3 °F /  5.7 °C 30.28 in /  1025.3 hPa West 11.0 mph /  17.7 km/h 20.0 mph /  32.2 km/h 69 % 0.00 in /  0 mm 181 W/m2
12:33 52.2 °F /  11.2 °C 42.3 °F /  5.7 °C 30.28 in /  1025.3 hPa West 12.0 mph /  19.3 km/h 21.0 mph /  33.8 km/h 69 % 0.00 in /  0 mm 156 W/m2
12:38 52.0 °F /  11.1 °C 42.1 °F /  5.6 °C 30.28 in /  1025.3 hPa West 11.0 mph /  17.7 km/h 21.0 mph /  33.8 km/h 69 % 0.00 in /  0 mm 158 W/m2
12:43 52.0 °F /  11.1 °C 42.5 °F /  5.8 °C 30.28 in /  1025.3 hPa West 11.0 mph /  17.7 km/h 18.0 mph /  29 km/h 70 % 0.00 in /  0 mm 197 W/m2
12:48 52.0 °F /  11.1 °C 42.5 °F /  5.8 °C 30.28 in /  1025.3 hPa West 11.0 mph /  17.7 km/h 18.0 mph /  29 km/h 70 % 0.00 in /  0 mm 181 W/m2
12:53 51.6 °F /  10.9 °C 42.2 °F /  5.7 °C 30.28 in /  1025.3 hPa West 11.0 mph /  17.7 km/h 19.0 mph /  30.6 km/h 70 % 0.00 in /  0 mm 186 W/m2
12:58 51.6 °F /  10.9 °C 42.2 °F /  5.7 °C 30.27 in /  1024.9 hPa West 10.0 mph /  16.1 km/h 19.0 mph /  30.6 km/h 70 % 0.00 in /  0 mm 183 W/m2
13:04 52.0 °F /  11.1 °C 42.5 °F /  5.8 °C 30.27 in /  1024.9 hPa West 10.0 mph /  16.1 km/h 18.0 mph /  29 km/h 70 % 0.00 in /  0 mm 185 W/m2
13:09 52.2 °F /  11.2 °C 42.7 °F /  5.9 °C 30.27 in /  1024.9 hPa West 9.0 mph /  14.5 km/h 16.0 mph /  25.7 km/h 70 % 0.00 in /  0 mm 202 W/m2
13:14 52.3 °F /  11.3 °C 42.5 °F /  5.8 °C 30.27 in /  1024.9 hPa West 9.0 mph /  14.5 km/h 19.0 mph /  30.6 km/h 69 % 0.00 in /  0 mm 220 W/m2
13:19 52.7 °F /  11.5 °C 42.8 °F /  6 °C 30.27 in /  1024.9 hPa West 12.0 mph /  19.3 km/h 23.0 mph /  37 km/h 69 % 0.00 in /  0 mm 281 W/m2
13:24 53.1 °F /  11.7 °C 43.2 °F /  6.2 °C 30.26 in /  1024.6 hPa WNW 13.0 mph /  20.9 km/h 23.0 mph /  37 km/h 69 % 0.00 in /  0 mm 341 W/m2
13:29 53.6 °F /  12 °C 43.3 °F /  6.3 °C 30.26 in /  1024.6 hPa WNW 13.0 mph /  20.9 km/h 26.0 mph /  41.8 km/h 68 % 0.00 in /  0 mm 436 W/m2
13:34 54.1 °F /  12.3 °C 43.0 °F /  6.1 °C 30.26 in /  1024.6 hPa West 16.0 mph /  25.7 km/h 26.0 mph /  41.8 km/h 66 % 0.00 in /  0 mm 919 W/m2
13:39 54.9 °F /  12.7 °C 42.9 °F /  6.1 °C 30.26 in /  1024.6 hPa West 15.0 mph /  24.1 km/h 25.0 mph /  40.2 km/h 64 % 0.00 in /  0 mm 650 W/m2
13:44 55.4 °F /  13 °C 43.0 °F /  6.1 °C 30.26 in /  1024.6 hPa West 14.0 mph /  22.5 km/h 26.0 mph /  41.8 km/h 63 % 0.00 in /  0 mm 302 W/m2
13:49 55.0 °F /  12.8 °C 41.8 °F /  5.4 °C 30.26 in /  1024.6 hPa WNW 16.0 mph /  25.7 km/h 27.0 mph /  43.5 km/h 61 % 0.00 in /  0 mm 436 W/m2
13:59 55.6 °F /  13.1 °C 42.8 °F /  6 °C 30.26 in /  1024.6 hPa WNW 15.0 mph /  24.1 km/h 24.0 mph /  38.6 km/h 62 % 0.00 in /  0 mm 353 W/m2
14:04 55.9 °F /  13.3 °C 43.1 °F /  6.2 °C 30.26 in /  1024.6 hPa West 12.0 mph /  19.3 km/h 22.0 mph /  35.4 km/h 62 % 0.00 in /  0 mm 459 W/m2
14:09 56.7 °F /  13.7 °C 42.9 °F /  6.1 °C 30.26 in /  1024.6 hPa West 11.0 mph /  17.7 km/h 21.0 mph /  33.8 km/h 60 % 0.00 in /  0 mm 960 W/m2
14:13 56.8 °F /  13.8 °C 42.7 °F /  5.9 °C 30.26 in /  1024.6 hPa West 12.0 mph /  19.3 km/h 22.0 mph /  35.4 km/h 59 % 0.00 in /  0 mm 657 W/m2
14:18 56.8 °F /  13.8 °C 42.7 °F /  5.9 °C 30.26 in /  1024.6 hPa West 14.0 mph /  22.5 km/h 22.0 mph /  35.4 km/h 59 % 0.00 in /  0 mm 383 W/m2
14:23 56.8 °F /  13.8 °C 43.1 °F /  6.2 °C 30.26 in /  1024.6 hPa WNW 14.0 mph /  22.5 km/h 26.0 mph /  41.8 km/h 60 % 0.00 in /  0 mm 664 W/m2
14:28 57.2 °F /  14 °C 43.4 °F /  6.3 °C 30.25 in /  1024.3 hPa WNW 13.0 mph /  20.9 km/h 26.0 mph /  41.8 km/h 60 % 0.00 in /  0 mm 784 W/m2
14:33 57.7 °F /  14.3 °C 43.5 °F /  6.4 °C 30.26 in /  1024.6 hPa WNW 12.0 mph /  19.3 km/h 20.0 mph /  32.2 km/h 59 % 0.00 in /  0 mm 561 W/m2
14:38 57.6 °F /  14.2 °C 42.4 °F /  5.8 °C 30.25 in /  1024.3 hPa WNW 13.0 mph /  20.9 km/h 25.0 mph /  40.2 km/h 57 % 0.00 in /  0 mm 577 W/m2
14:43 57.4 °F /  14.1 °C 42.3 °F /  5.7 °C 30.25 in /  1024.3 hPa WNW 15.0 mph /  24.1 km/h 26.0 mph /  41.8 km/h 57 % 0.00 in /  0 mm 798 W/m2
14:48 57.7 °F /  14.3 °C 42.1 °F /  5.6 °C 30.25 in /  1024.3 hPa WNW 15.0 mph /  24.1 km/h 26.0 mph /  41.8 km/h 56 % 0.00 in /  0 mm 700 W/m2
14:53 57.7 °F /  14.3 °C 41.2 °F /  5.1 °C 30.25 in /  1024.3 hPa West 15.0 mph /  24.1 km/h 27.0 mph /  43.5 km/h 54 % 0.00 in /  0 mm 661 W/m2
14:58 57.7 °F /  14.3 °C 41.7 °F /  5.4 °C 30.25 in /  1024.3 hPa West 15.0 mph /  24.1 km/h 27.0 mph /  43.5 km/h 55 % 0.00 in /  0 mm 596 W/m2
15:03 57.7 °F /  14.3 °C 42.1 °F /  5.6 °C 30.25 in /  1024.3 hPa West 14.0 mph /  22.5 km/h 26.0 mph /  41.8 km/h 56 % 0.00 in /  0 mm 359 W/m2
15:08 57.4 °F /  14.1 °C 41.8 °F /  5.4 °C 30.25 in /  1024.3 hPa WNW 15.0 mph /  24.1 km/h 26.0 mph /  41.8 km/h 56 % 0.00 in /  0 mm 613 W/m2
15:13 57.2 °F /  14 °C 41.6 °F /  5.3 °C 30.25 in /  1024.3 hPa WNW 14.0 mph /  22.5 km/h 26.0 mph /  41.8 km/h 56 % 0.00 in /  0 mm 490 W/m2
15:18 57.0 °F /  13.9 °C 41.9 °F /  5.5 °C 30.25 in /  1024.3 hPa WNW 13.0 mph /  20.9 km/h 23.0 mph /  37 km/h 57 % 0.00 in /  0 mm 425 W/m2
15:23 56.5 °F /  13.6 °C 41.4 °F /  5.2 °C 30.25 in /  1024.3 hPa WNW 13.0 mph /  20.9 km/h 22.0 mph /  35.4 km/h 57 % 0.00 in /  0 mm 424 W/m2
15:28 55.9 °F /  13.3 °C 41.4 °F /  5.2 °C 30.25 in /  1024.3 hPa WNW 16.0 mph /  25.7 km/h 28.0 mph /  45.1 km/h 58 % 0.00 in /  0 mm 396 W/m2
15:38 54.9 °F /  12.7 °C 41.7 °F /  5.4 °C 30.25 in /  1024.3 hPa WNW 15.0 mph /  24.1 km/h 28.0 mph /  45.1 km/h 61 % 0.00 in /  0 mm 350 W/m2
15:43 54.9 °F /  12.7 °C 41.7 °F /  5.4 °C 30.25 in /  1024.3 hPa WNW 15.0 mph /  24.1 km/h 28.0 mph /  45.1 km/h 61 % 0.00 in /  0 mm 494 W/m2
15:48 55.0 °F /  12.8 °C 41.8 °F /  5.4 °C 30.24 in /  1023.9 hPa WNW 16.0 mph /  25.7 km/h 27.0 mph /  43.5 km/h 61 % 0.00 in /  0 mm 482 W/m2
15:53 55.2 °F /  12.9 °C 42.0 °F /  5.6 °C 30.24 in /  1023.9 hPa WNW 15.0 mph /  24.1 km/h 27.0 mph /  43.5 km/h 61 % 0.00 in /  0 mm 390 W/m2
15:58 55.2 °F /  12.9 °C 42.0 °F /  5.6 °C 30.24 in /  1023.9 hPa WNW 14.0 mph /  22.5 km/h 25.0 mph /  40.2 km/h 61 % 0.00 in /  0 mm 478 W/m2
16:03 55.2 °F /  12.9 °C 42.0 °F /  5.6 °C 30.24 in /  1023.9 hPa West 15.0 mph /  24.1 km/h 25.0 mph /  40.2 km/h 61 % 0.00 in /  0 mm 401 W/m2
16:08 54.9 °F /  12.7 °C 42.1 °F /  5.6 °C 30.23 in /  1023.6 hPa West 15.0 mph /  24.1 km/h 25.0 mph /  40.2 km/h 62 % 0.00 in /  0 mm 541 W/m2
16:13 55.2 °F /  12.9 °C 42.0 °F /  5.6 °C 30.23 in /  1023.6 hPa WNW 16.0 mph /  25.7 km/h 27.0 mph /  43.5 km/h 61 % 0.00 in /  0 mm 529 W/m2
16:18 55.2 °F /  12.9 °C 42.0 °F /  5.6 °C 30.23 in /  1023.6 hPa West 17.0 mph /  27.4 km/h 27.0 mph /  43.5 km/h 61 % 0.00 in /  0 mm 520 W/m2
16:23 55.0 °F /  12.8 °C 41.8 °F /  5.4 °C 30.22 in /  1023.2 hPa West 17.0 mph /  27.4 km/h 26.0 mph /  41.8 km/h 61 % 0.00 in /  0 mm 323 W/m2
16:28 55.0 °F /  12.8 °C 42.3 °F /  5.7 °C 30.22 in /  1023.2 hPa West 14.0 mph /  22.5 km/h 26.0 mph /  41.8 km/h 62 % 0.00 in /  0 mm 251 W/m2
16:33 54.7 °F /  12.6 °C 41.5 °F /  5.3 °C 30.22 in /  1023.2 hPa West 13.0 mph /  20.9 km/h 23.0 mph /  37 km/h 61 % 0.00 in /  0 mm 192 W/m2
16:38 54.7 °F /  12.6 °C 41.9 °F /  5.5 °C 30.22 in /  1023.2 hPa West 14.0 mph /  22.5 km/h 25.0 mph /  40.2 km/h 62 % 0.00 in /  0 mm 183 W/m2
16:43 54.7 °F /  12.6 °C 41.9 °F /  5.5 °C 30.22 in /  1023.2 hPa West 12.0 mph /  19.3 km/h 25.0 mph /  40.2 km/h 62 % 0.00 in /  0 mm 185 W/m2
16:48 54.5 °F /  12.5 °C 42.2 °F /  5.7 °C 30.22 in /  1023.2 hPa West 12.0 mph /  19.3 km/h 22.0 mph /  35.4 km/h 63 % 0.00 in /  0 mm 188 W/m2
16:53 54.3 °F /  12.4 °C 41.6 °F /  5.3 °C 30.22 in /  1023.2 hPa WNW 13.0 mph /  20.9 km/h 23.0 mph /  37 km/h 62 % 0.00 in /  0 mm 199 W/m2
16:58 54.1 °F /  12.3 °C 41.4 °F /  5.2 °C 30.22 in /  1023.2 hPa WNW 14.0 mph /  22.5 km/h 23.0 mph /  37 km/h 62 % 0.00 in /  0 mm 162 W/m2
17:03 53.8 °F /  12.1 °C 41.5 °F /  5.3 °C 30.22 in /  1023.2 hPa WNW 13.0 mph /  20.9 km/h 23.0 mph /  37 km/h 63 % 0.00 in /  0 mm 172 W/m2
17:08 53.4 °F /  11.9 °C 41.5 °F /  5.3 °C 30.22 in /  1023.2 hPa WNW 13.0 mph /  20.9 km/h 23.0 mph /  37 km/h 64 % 0.00 in /  0 mm 160 W/m2
17:13 53.4 °F /  11.9 °C 41.5 °F /  5.3 °C 30.22 in /  1023.2 hPa WNW 12.0 mph /  19.3 km/h 22.0 mph /  35.4 km/h 64 % 0.00 in /  0 mm 167 W/m2
17:18 53.4 °F /  11.9 °C 41.9 °F /  5.5 °C 30.21 in /  1022.9 hPa West 11.0 mph /  17.7 km/h 21.0 mph /  33.8 km/h 65 % 0.00 in /  0 mm 265 W/m2
17:23 53.8 °F /  12.1 °C 41.9 °F /  5.5 °C 30.21 in /  1022.9 hPa West 12.0 mph /  19.3 km/h 22.0 mph /  35.4 km/h 64 % 0.00 in /  0 mm 334 W/m2
17:28 54.1 °F /  12.3 °C 41.8 °F /  5.4 °C 30.21 in /  1022.9 hPa West 13.0 mph /  20.9 km/h 22.0 mph /  35.4 km/h 63 % 0.00 in /  0 mm 272 W/m2
17:33 54.1 °F /  12.3 °C 41.4 °F /  5.2 °C 30.20 in /  1022.6 hPa West 14.0 mph /  22.5 km/h 23.0 mph /  37 km/h 62 % 0.00 in /  0 mm 216 W/m2
17:38 54.0 °F /  12.2 °C 41.6 °F /  5.3 °C 30.20 in /  1022.6 hPa West 14.0 mph /  22.5 km/h 23.0 mph /  37 km/h 63 % 0.00 in /  0 mm 179 W/m2
17:43 54.0 °F /  12.2 °C 41.6 °F /  5.3 °C 30.20 in /  1022.6 hPa West 14.0 mph /  22.5 km/h 24.0 mph /  38.6 km/h 63 % 0.00 in /  0 mm 185 W/m2
17:48 53.8 °F /  12.1 °C 41.1 °F /  5.1 °C 30.20 in /  1022.6 hPa West 15.0 mph /  24.1 km/h 25.0 mph /  40.2 km/h 62 % 0.00 in /  0 mm 137 W/m2
17:53 53.6 °F /  12 °C 40.9 °F /  4.9 °C 30.20 in /  1022.6 hPa West 15.0 mph /  24.1 km/h 25.0 mph /  40.2 km/h 62 % 0.00 in /  0 mm 127 W/m2
17:58 53.2 °F /  11.8 °C 41.0 °F /  5 °C 30.19 in /  1022.2 hPa West 15.0 mph /  24.1 km/h 24.0 mph /  38.6 km/h 63 % 0.00 in /  0 mm 162 W/m2
18:03 53.1 °F /  11.7 °C 40.8 °F /  4.9 °C 30.19 in /  1022.2 hPa West 17.0 mph /  27.4 km/h 26.0 mph /  41.8 km/h 63 % 0.00 in /  0 mm 113 W/m2
18:08 52.9 °F /  11.6 °C 41.0 °F /  5 °C 30.19 in /  1022.2 hPa West 17.0 mph /  27.4 km/h 26.0 mph /  41.8 km/h 64 % 0.00 in /  0 mm 91 W/m2
18:14 52.9 °F /  11.6 °C 41.0 °F /  5 °C 30.19 in /  1022.2 hPa West 16.0 mph /  25.7 km/h 25.0 mph /  40.2 km/h 64 % 0.00 in /  0 mm 86 W/m2
18:19 52.7 °F /  11.5 °C 41.3 °F /  5.2 °C 30.19 in /  1022.2 hPa West 15.0 mph /  24.1 km/h 25.0 mph /  40.2 km/h 65 % 0.00 in /  0 mm 88 W/m2
18:24 52.5 °F /  11.4 °C 41.5 °F /  5.3 °C 30.19 in /  1022.2 hPa West 12.0 mph /  19.3 km/h 20.0 mph /  32.2 km/h 66 % 0.00 in /  0 mm 86 W/m2
18:29 52.5 °F /  11.4 °C 41.5 °F /  5.3 °C 30.19 in /  1022.2 hPa West 13.0 mph /  20.9 km/h 22.0 mph /  35.4 km/h 66 % 0.00 in /  0 mm 77 W/m2
18:34 52.5 °F /  11.4 °C 41.5 °F /  5.3 °C 30.19 in /  1022.2 hPa West 13.0 mph /  20.9 km/h 22.0 mph /  35.4 km/h 66 % 0.00 in /  0 mm 76 W/m2
18:39 52.3 °F /  11.3 °C 41.3 °F /  5.2 °C 30.19 in /  1022.2 hPa West 13.0 mph /  20.9 km/h 23.0 mph /  37 km/h 66 % 0.00 in /  0 mm 62 W/m2
18:44 52.3 °F /  11.3 °C 41.7 °F /  5.4 °C 30.18 in /  1021.9 hPa West 13.0 mph /  20.9 km/h 23.0 mph /  37 km/h 67 % 0.00 in /  0 mm 47 W/m2
18:49 52.2 °F /  11.2 °C 41.9 °F /  5.5 °C 30.18 in /  1021.9 hPa West 12.0 mph /  19.3 km/h 18.0 mph /  29 km/h 68 % 0.00 in /  0 mm 42 W/m2
18:54 52.0 °F /  11.1 °C 41.7 °F /  5.4 °C 30.18 in /  1021.9 hPa West 12.0 mph /  19.3 km/h 20.0 mph /  32.2 km/h 68 % 0.00 in /  0 mm 40 W/m2
18:59 51.8 °F /  11 °C 41.6 °F /  5.3 °C 30.18 in /  1021.9 hPa West 11.0 mph /  17.7 km/h 20.0 mph /  32.2 km/h 68 % 0.00 in /  0 mm 40 W/m2
19:04 51.6 °F /  10.9 °C 41.4 °F /  5.2 °C 30.18 in /  1021.9 hPa West 10.0 mph /  16.1 km/h 18.0 mph /  29 km/h 68 % 0.00 in /  0 mm 40 W/m2
19:09 51.6 °F /  10.9 °C 41.8 °F /  5.4 °C 30.18 in /  1021.9 hPa West 12.0 mph /  19.3 km/h 19.0 mph /  30.6 km/h 69 % 0.00 in /  0 mm 40 W/m2
19:14 51.4 °F /  10.8 °C 41.6 °F /  5.3 °C 30.18 in /  1021.9 hPa West 12.0 mph /  19.3 km/h 19.0 mph /  30.6 km/h 69 % 0.00 in /  0 mm 42 W/m2
19:19 51.4 °F /  10.8 °C 41.6 °F /  5.3 °C 30.18 in /  1021.9 hPa West 11.0 mph /  17.7 km/h 18.0 mph /  29 km/h 69 % 0.00 in /  0 mm 33 W/m2
19:20 51.4 °F /  10.8 °C 41.6 °F /  5.3 °C 30.18 in /  1021.9 hPa West 11.0 mph /  17.7 km/h 18.0 mph /  29 km/h 69 % 0.00 in /  0 mm 35 W/m2
19:25 51.3 °F /  10.7 °C 41.8 °F /  5.4 °C 30.18 in /  1021.9 hPa West 10.0 mph /  16.1 km/h 18.0 mph /  29 km/h 70 % 0.00 in /  0 mm 46 W/m2
19:26 51.3 °F /  10.7 °C 41.8 °F /  5.4 °C 30.18 in /  1021.9 hPa West 10.0 mph /  16.1 km/h 18.0 mph /  29 km/h 70 % 0.00 in /  0 mm 44 W/m2
19:31 51.3 °F /  10.7 °C 41.4 °F /  5.2 °C 30.18 in /  1021.9 hPa West 10.0 mph /  16.1 km/h 18.0 mph /  29 km/h 69 % 0.00 in /  0 mm 25 W/m2
19:36 51.3 °F /  10.7 °C 41.4 °F /  5.2 °C 30.18 in /  1021.9 hPa West 10.0 mph /  16.1 km/h 16.0 mph /  25.7 km/h 69 % 0.00 in /  0 mm 18 W/m2
19:41 51.1 °F /  10.6 °C 41.6 °F /  5.3 °C 30.18 in /  1021.9 hPa West 9.0 mph /  14.5 km/h 16.0 mph /  25.7 km/h 70 % 0.00 in /  0 mm 16 W/m2
19:46 50.9 °F /  10.5 °C 41.5 °F /  5.3 °C 30.18 in /  1021.9 hPa West 8.0 mph /  12.9 km/h 14.0 mph /  22.5 km/h 70 % 0.00 in /  0 mm 12 W/m2
19:51 50.7 °F /  10.4 °C 41.3 °F /  5.2 °C 30.17 in /  1021.6 hPa West 9.0 mph /  14.5 km/h 16.0 mph /  25.7 km/h 70 % 0.00 in /  0 mm 9 W/m2
19:56 50.7 °F /  10.4 °C 41.3 °F /  5.2 °C 30.17 in /  1021.6 hPa West 9.0 mph /  14.5 km/h 16.0 mph /  25.7 km/h 70 % 0.00 in /  0 mm 5 W/m2
20:01 50.5 °F /  10.3 °C 41.1 °F /  5.1 °C 30.17 in /  1021.6 hPa West 9.0 mph /  14.5 km/h 15.0 mph /  24.1 km/h 70 % 0.00 in /  0 mm 0 W/m2
20:06 50.5 °F /  10.3 °C 41.1 °F /  5.1 °C 30.17 in /  1021.6 hPa West 11.0 mph /  17.7 km/h 23.0 mph /  37 km/h 70 % 0.00 in /  0 mm 0 W/m2
20:11 50.5 °F /  10.3 °C 40.7 °F /  4.8 °C 30.17 in /  1021.6 hPa West 13.0 mph /  20.9 km/h 25.0 mph /  40.2 km/h 69 % 0.00 in /  0 mm 0 W/m2
20:16 50.4 °F /  10.2 °C 40.6 °F /  4.8 °C 30.17 in /  1021.6 hPa West 14.0 mph /  22.5 km/h 25.0 mph /  40.2 km/h 69 % 0.00 in /  0 mm 0 W/m2
20:27 50.4 °F /  10.2 °C 40.6 °F /  4.8 °C 30.17 in /  1021.6 hPa West 11.0 mph /  17.7 km/h 22.0 mph /  35.4 km/h 69 % 0.00 in /  0 mm 0 W/m2
20:32 50.4 °F /  10.2 °C 40.9 °F /  4.9 °C 30.17 in /  1021.6 hPa West 10.0 mph /  16.1 km/h 18.0 mph /  29 km/h 70 % 0.00 in /  0 mm 0 W/m2
20:37 50.2 °F /  10.1 °C 40.8 °F /  4.9 °C 30.17 in /  1021.6 hPa West 10.0 mph /  16.1 km/h 21.0 mph /  33.8 km/h 70 % 0.00 in /  0 mm 0 W/m2
20:42 50.2 °F /  10.1 °C 41.1 °F /  5.1 °C 30.17 in /  1021.6 hPa West 13.0 mph /  20.9 km/h 26.0 mph /  41.8 km/h 71 % 0.00 in /  0 mm 0 W/m2
20:47 50.2 °F /  10.1 °C 41.1 °F /  5.1 °C 30.17 in /  1021.6 hPa West 14.0 mph /  22.5 km/h 26.0 mph /  41.8 km/h 71 % 0.00 in /  0 mm 0 W/m2
20:52 50.2 °F /  10.1 °C 41.1 °F /  5.1 °C 30.17 in /  1021.6 hPa West 13.0 mph /  20.9 km/h 23.0 mph /  37 km/h 71 % 0.00 in /  0 mm 0 W/m2
20:57 50.0 °F /  10 °C 41.3 °F /  5.2 °C 30.17 in /  1021.6 hPa West 13.0 mph /  20.9 km/h 25.0 mph /  40.2 km/h 72 % 0.00 in /  0 mm 0 W/m2
21:02 50.2 °F /  10.1 °C 41.5 °F /  5.3 °C 30.17 in /  1021.6 hPa West 14.0 mph /  22.5 km/h 25.0 mph /  40.2 km/h 72 % 0.00 in /  0 mm 0 W/m2
21:07 50.0 °F /  10 °C 41.3 °F /  5.2 °C 30.17 in /  1021.6 hPa West 14.0 mph /  22.5 km/h 25.0 mph /  40.2 km/h 72 % 0.00 in /  0 mm 0 W/m2
21:12 50.0 °F /  10 °C 41.3 °F /  5.2 °C 30.17 in /  1021.6 hPa West 15.0 mph /  24.1 km/h 25.0 mph /  40.2 km/h 72 % 0.00 in /  0 mm 0 W/m2
21:17 50.0 °F /  10 °C 41.3 °F /  5.2 °C 30.17 in /  1021.6 hPa West 15.0 mph /  24.1 km/h 25.0 mph /  40.2 km/h 72 % 0.00 in /  0 mm 0 W/m2
21:22 50.0 °F /  10 °C 41.3 °F /  5.2 °C 30.17 in /  1021.6 hPa West 13.0 mph /  20.9 km/h 22.0 mph /  35.4 km/h 72 % 0.00 in /  0 mm 0 W/m2
21:27 50.0 °F /  10 °C 41.3 °F /  5.2 °C 30.17 in /  1021.6 hPa West 12.0 mph /  19.3 km/h 23.0 mph /  37 km/h 72 % 0.00 in /  0 mm 0 W/m2
21:32 50.0 °F /  10 °C 41.3 °F /  5.2 °C 30.17 in /  1021.6 hPa West 11.0 mph /  17.7 km/h 23.0 mph /  37 km/h 72 % 0.00 in /  0 mm 0 W/m2
21:37 49.8 °F /  9.9 °C 41.2 °F /  5.1 °C 30.17 in /  1021.6 hPa West 11.0 mph /  17.7 km/h 20.0 mph /  32.2 km/h 72 % 0.00 in /  0 mm 0 W/m2
21:42 49.8 °F /  9.9 °C 41.2 °F /  5.1 °C 30.17 in /  1021.6 hPa West 13.0 mph /  20.9 km/h 21.0 mph /  33.8 km/h 72 % 0.00 in /  0 mm 0 W/m2
21:47 49.8 °F /  9.9 °C 41.2 °F /  5.1 °C 30.17 in /  1021.6 hPa West 11.0 mph /  17.7 km/h 21.0 mph /  33.8 km/h 72 % 0.00 in /  0 mm 0 W/m2
21:52 49.8 °F /  9.9 °C 41.5 °F /  5.3 °C 30.17 in /  1021.6 hPa West 10.0 mph /  16.1 km/h 18.0 mph /  29 km/h 73 % 0.00 in /  0 mm 0 W/m2
21:57 49.8 °F /  9.9 °C 41.5 °F /  5.3 °C 30.17 in /  1021.6 hPa West 11.0 mph /  17.7 km/h 18.0 mph /  29 km/h 73 % 0.00 in /  0 mm 0 W/m2
22:02 49.8 °F /  9.9 °C 41.5 °F /  5.3 °C 30.17 in /  1021.6 hPa West 10.0 mph /  16.1 km/h 18.0 mph /  29 km/h 73 % 0.00 in /  0 mm 0 W/m2
22:07 49.8 °F /  9.9 °C 41.5 °F /  5.3 °C 30.17 in /  1021.6 hPa West 10.0 mph /  16.1 km/h 16.0 mph /  25.7 km/h 73 % 0.00 in /  0 mm 0 W/m2
22:12 49.8 °F /  9.9 °C 41.9 °F /  5.5 °C 30.17 in /  1021.6 hPa West 10.0 mph /  16.1 km/h 16.0 mph /  25.7 km/h 74 % 0.00 in /  0 mm 0 W/m2
22:17 49.6 °F /  9.8 °C 41.7 °F /  5.4 °C 30.17 in /  1021.6 hPa West 10.0 mph /  16.1 km/h 19.0 mph /  30.6 km/h 74 % 0.00 in /  0 mm 0 W/m2
22:22 49.6 °F /  9.8 °C 41.7 °F /  5.4 °C 30.16 in /  1021.2 hPa West 10.0 mph /  16.1 km/h 20.0 mph /  32.2 km/h 74 % 0.00 in /  0 mm 0 W/m2
22:27 49.6 °F /  9.8 °C 42.0 °F /  5.6 °C 30.16 in /  1021.2 hPa West 11.0 mph /  17.7 km/h 20.0 mph /  32.2 km/h 75 % 0.00 in /  0 mm 0 W/m2
22:32 49.6 °F /  9.8 °C 42.0 °F /  5.6 °C 30.16 in /  1021.2 hPa West 10.0 mph /  16.1 km/h 22.0 mph /  35.4 km/h 75 % 0.00 in /  0 mm 0 W/m2
22:37 49.6 °F /  9.8 °C 42.0 °F /  5.6 °C 30.16 in /  1021.2 hPa West 11.0 mph /  17.7 km/h 22.0 mph /  35.4 km/h 75 % 0.00 in /  0 mm 0 W/m2
22:42 49.6 °F /  9.8 °C 42.0 °F /  5.6 °C 30.15 in /  1020.9 hPa West 10.0 mph /  16.1 km/h 21.0 mph /  33.8 km/h 75 % 0.00 in /  0 mm 0 W/m2
22:47 49.5 °F /  9.7 °C 42.2 °F /  5.7 °C 30.15 in /  1020.9 hPa West 8.0 mph /  12.9 km/h 14.0 mph /  22.5 km/h 76 % 0.00 in /  0 mm 0 W/m2
22:52 49.5 °F /  9.7 °C 42.2 °F /  5.7 °C 30.15 in /  1020.9 hPa West 9.0 mph /  14.5 km/h 16.0 mph /  25.7 km/h 76 % 0.00 in /  0 mm 0 W/m2
22:57 49.6 °F /  9.8 °C 42.4 °F /  5.8 °C 30.15 in /  1020.9 hPa WSW 9.0 mph /  14.5 km/h 16.0 mph /  25.7 km/h 76 % 0.00 in /  0 mm 0 W/m2
23:02 49.6 °F /  9.8 °C 42.4 °F /  5.8 °C 30.15 in /  1020.9 hPa WSW 8.0 mph /  12.9 km/h 14.0 mph /  22.5 km/h 76 % 0.00 in /  0 mm 0 W/m2
23:07 49.6 °F /  9.8 °C 42.4 °F /  5.8 °C 30.14 in /  1020.5 hPa WSW 8.0 mph /  12.9 km/h 15.0 mph /  24.1 km/h 76 % 0.00 in /  0 mm 0 W/m2
23:12 49.6 °F /  9.8 °C 42.4 °F /  5.8 °C 30.14 in /  1020.5 hPa WSW 7.0 mph /  11.3 km/h 15.0 mph /  24.1 km/h 76 % 0.00 in /  0 mm 0 W/m2
23:17 49.6 °F /  9.8 °C 42.4 °F /  5.8 °C 30.14 in /  1020.5 hPa WSW 7.0 mph /  11.3 km/h 18.0 mph /  29 km/h 76 % 0.00 in /  0 mm 0 W/m2
23:22 49.6 °F /  9.8 °C 42.4 °F /  5.8 °C 30.14 in /  1020.5 hPa WSW 8.0 mph /  12.9 km/h 18.0 mph /  29 km/h 76 % 0.00 in /  0 mm 0 W/m2
23:27 49.6 °F /  9.8 °C 42.4 °F /  5.8 °C 30.13 in /  1020.2 hPa SW 6.0 mph /  9.7 km/h 16.0 mph /  25.7 km/h 76 % 0.00 in /  0 mm 0 W/m2
23:32 49.6 °F /  9.8 °C 42.4 °F /  5.8 °C 30.13 in /  1020.2 hPa WSW 6.0 mph /  9.7 km/h 12.0 mph /  19.3 km/h 76 % 0.00 in /  0 mm 0 W/m2
23:37 49.5 °F /  9.7 °C 42.5 °F /  5.8 °C 30.13 in /  1020.2 hPa SW 6.0 mph /  9.7 km/h 12.0 mph /  19.3 km/h 77 % 0.00 in /  0 mm 0 W/m2
23:42 49.5 °F /  9.7 °C 42.5 °F /  5.8 °C 30.12 in /  1019.9 hPa SW 6.0 mph /  9.7 km/h 11.0 mph /  17.7 km/h 77 % 0.00 in /  0 mm 0 W/m2
23:47 49.5 °F /  9.7 °C 42.5 °F /  5.8 °C 30.12 in /  1019.9 hPa SW 6.0 mph /  9.7 km/h 11.0 mph /  17.7 km/h 77 % 0.00 in /  0 mm 0 W/m2
23:53 49.3 °F /  9.6 °C 42.4 °F /  5.8 °C 30.12 in /  1019.9 hPa SW 6.0 mph /  9.7 km/h 11.0 mph /  17.7 km/h 77 % 0.00 in /  0 mm 0 W/m2
23:58 49.3 °F /  9.6 °C 42.7 °F /  5.9 °C 30.12 in /  1019.9 hPa WSW 7.0 mph /  11.3 km/h 19.0 mph /  30.6 km/h 78 % 0.00 in /  0 mm 0 W/m2
Delerius-Weather
Compliments of Weather Underground - 2.25 mb

Data updates at regular intervals.